Racecast

None

None · 5000m · Girls · Women's 5k · 2010-09-25

Course difficulty: —i

View full meet →

Team scores

Place Team Points 12345 67
1 Fayetteville (AR) 54 3 5 6 17 23 29 57
2 Tahlequah (OK) 60 2 8 11 18 21 26 40
3 Har-Ber (AR) 67 1 4 13 24 25 27 31
4 Bentonville (AR) 107 10 14 16 28 39 44 45
5 Springdale (AR) 119 7 9 20 32 51
6 FS Southside (AR) 155 12 19 35 41 48
7 Shiloh Christian (AR) 161 15 30 33 36 47
8 Ozark (MO) 186 22 37 38 43 46
9 Elkins (WV) 251 42 49 50 52 58 59
10 Alma (MI) 252 34 53 54 55 56 60

Computed: five scorers, two displacers, incomplete teams removed. Not scored, fewer than five finishers: Van Buren (OH) (4), Northside High School (4), Huntsville (AR) (4), Rogers (MN) (4), Pea Ridge (4), Siloam Springs (4), Ozark (AR) (3), Greenwood (KY) (3), Greenwood (AR) (3), Elkins (AR) (3), Union Christian (3), Haas Hall (2), Eureka Springs (2), Heritage (CO) (2), Harrison (AR) (2), Jay High School (1), Berryville (1), Kansas High School (1), Van Buren (AR) (1), West Fork (AR) (1), Heritage (AR) (1), Cedarville (OH) (1), Harrison (GA) (1), Alma (AR) (1).

Results

Place Athlete Grade School Time Ratingi Points
1 Valerie Reina 2012 Har-Ber (AR) 1 18:36.8 PR 1
2 Jessica Hembree 2013 Tahlequah (OK) 1 18:58 2
3 Kate Bucknam 2011 Fayetteville (AR) 1 19:00 PR 3
4 Taylor Martin 2011 Har-Ber (AR) 2 20:06.6 4
5 Maggie Pickardt 2011 Fayetteville (AR) 2 20:38.5 5
6 Talisa Budder Jay High School (OK) 1 20:50.2
7 Chelsey Needham 2013 Van Buren (OH) 1 21:15.3 PR 6
8 Anne Mitchell 2011 Fayetteville (AR) 3 21:27.5 7
9 Jasmine Myrick 2013 Springdale (AR) 1 21:49.7 PR 8
10 Breanna Duncan 2013 Tahlequah (OK) 2 22:05 9
11 Katie Swofford 2011 Berryville (AR) 1 22:14.2 PR
12 Leslie Adair 2012 Van Buren (OH) 2 22:20.1 PR 10
13 Brookquel Smith 2011 Van Buren (OH) 3 22:22.4 PR 11
14 Alicia Reyna 2013 Springdale (AR) 2 22:22.8 12
15 Colleen Flanagan Northside High School (VA) 1 22:26
16 Marla Vasquez 2012 Bentonville (AR) 1 22:29.9 PR 13
17 Brittany Nipps 11 Kansas High School (OK) 1 22:32.2 PR
18 Brittanie Gragg 2014 Huntsville (AL) 1 22:33.8 PR
19 Carly Gipson 2013 Tahlequah (OK) 3 22:36.9 14
20 Alex Dorch 2012 Rogers (MN) 1 22:38.6
21 Ciara Sweeney 2013 FS Southside (AR) 1 22:39.7 PR 15
22 Annie Brown 2013 Haas Hall (AR) 1 22:41.4
23 Alyssa Moore 2011 Har-Ber (AR) 3 22:48 16
24 Brenda Salinas 2013 Rogers (MN) 2 22:48.8 PR
25 Shelby Stacey 2013 Bentonville (AR) 2 23:04.1 PR 17
26 Kayla Griffith 2012 Van Buren (OH) 4 23:07 PR 18
27 Jassa Ferrell 2012 West Fork (AR) 1 23:09.9 PR
28 Madison Elliott 2013 Shiloh Christian (AR) 1 23:18.2 19
29 Kim Cribbs 2011 Pea Ridge (AR) 1 23:25.5
30 Colleen Kretzer 2012 Siloam Springs (AR) 1 23:26.6 PR
31 Melanie Brecht 2014 Heritage (CO) 1 23:28 PR
32 Alexander Miller 2013 Bentonville (AR) 3 23:34.8 20
33 Megan McDonald 2013 Fayetteville (AR) 4 23:40.2 21
34 Medellin Alejandra 2014 Tahlequah (OK) 4 23:47.2 22
35 Erin Weese 2012 FS Southside (AR) 2 23:51.3 23
36 Rosi Cruz 2013 Springdale (AR) 3 23:54.3 PR 24
37 Thalia Mora 2012 Tahlequah (OK) 5 23:58.6 25
38 Shelbie Armstrong 2011 Ozark (MO) 1 23:59 PR 26
39 Isabella Blakeman 2013 Fayetteville (AR) 5 23:59.9 PR 27
40 Emma Gartner 2012 Har-Ber (AR) 4 24:01.2 SR 28
41 Andrea Perry 2011 Siloam Springs (AR) 2 24:07.2
42 Kayla Thompson 2013 Har-Ber (AR) 5 24:14.5 29
43 Shyanna Easom 2012 Ozark (MO) 2 24:23 PR 30
44 Martina Tovar 2013 Tahlequah (OK) 6 24:28 PR 31
45 Morgan Hritz 2012 Har-Ber (AR) 6 24:32 PR 32
46 Adrieen Staudinger 2011 Bentonville (AR) 4 24:40.9 33
47 Darby Miller 2013 Rogers (MN) 3 24:42.4
48 Mackenzie Bramwell 2013 Fayetteville (AR) 6 24:57.5 34
49 Elka Platt 2014 Greenwood (KY) 1 25:00.2 PR 35
50 Carley Sears 2011 Shiloh Christian (AR) 2 25:13.4 36
51 Halie Cosper 2012 Greenwood (KY) 2 25:14.2 PR 37
52 Billie Jo Turner 2012 Cedarville (OH) 1 25:15 PR
53 Mary Kirchner 2012 Har-Ber (AR) 7 25:16.1 38
54 Laura Worthen 2012 Springdale (AR) 4 25:16.9 39
55 Hailey Hendrix 2013 Har-Ber (AR) 8 25:17.5
56 Nicole Pianalto 2011 Har-Ber (AR) 9 25:19.5 SR
57 Amber Compateso 2011 Elkins (WV) 1 25:20.1 SR 40
58 Madison Lowe 2011 Shiloh Christian (AR) 3 25:20.6 41
59 Kalynn Barlow 2012 Siloam Springs (AR) 3 25:21 PR
60 Caitlin Neil Northside High School (VA) 2 25:22.4
61 Allison Williams 2012 Alma (MI) 1 25:28 42
62 Elizabeth Wheeler 2012 Harrison (GA) 1 25:28.6
63 Marisol Araujo 11 Northside High School (VA) 3 25:29.6 PR
64 Michaela Hall 2012 FS Southside (AR) 3 25:32.4 PR 43
65 Marie Asher 2011 Greenwood (KY) 3 25:44.2 PR 44
66 Lindsey Roe 2011 Shiloh Christian (AR) 4 25:49.1 45
67 Kenya Boes 2013 Eureka Springs (AR) 1 25:49.7 PR
68 Ashlee Griffin 2014 Ozark (MO) 3 25:49.9 PR 46
69 Baylee Harris 2014 Ozark (MO) 4 25:51.3 47
70 Megan Overby 2011 Heritage (CO) 2 26:05.7
71 Kylie Dickerson 2013 Greenwood (KY) 4 26:09 48
72 Taylor Richard 2013 Ozark (MO) 5 26:12 49
73 Amanda Oehlert 2013 Bentonville (AR) 5 26:12.5 PR 50
74 Megan Harris 2011 Pea Ridge (AR) 2 26:13.7
75 Claire Richardson 2013 Huntsville (AL) 2 26:14.8 SR
76 Telika Oropeza 2013 Tahlequah (OK) 7 26:28.2 SR 51
77 Kenzie Mounce 2012 Elkins (WV) 2 26:28.6 SR 52
78 Kathleen Smith 2011 Har-Ber (AR) 10 26:35.2 SR
79 Cara Hamrick 2011 FS Southside (AR) 4 26:48.1 SR 53
80 Morgan Strong 2011 Elkins (WV) 3 26:49.8 54
81 Arely Ramirez 2013 Harrison (GA) 2 26:51.3 SR
82 Tanya Hankins 2011 Elkins (WV) 4 26:54.3 SR 55
83 Jazz Urioste 2013 Eureka Springs (AR) 2 27:05.6 PR
84 Lidia Humphrey 2011 Ozark (MO) 6 27:08.2 PR 56
85 Emily Mears 2013 Van Buren (OH) 5 27:16.9 PR 57
86 victoria stokes 2010 Ozark (MO) 7 27:23.5 58
87 Mari Eves 2011 Bentonville (AR) 6 27:28.7 PR 59
88 Morgan Thompson 2014 Tahlequah (OK) 8 27:32.8
89 Reagan Cassat 2013 Har-Ber (AR) 11 27:37.3 PR
90 Ashley Eves 2011 Bentonville (AR) 7 27:40.5 PR 60
91 Joy Pierce 2011 Greenwood (KY) 5 27:42 PR 61
92 Jordan Roach 2013 Tahlequah (OK) 9 27:50.9
93 Naomi Smith 2013 Rogers (MN) 4 27:52.5
94 Sara Cate 2011 Union Christian (AR) 1 27:53.2
95 Diamond Brockett 2014 Ozark (MO) 8 27:59.8 PR
96 Tracey Mardis 2011 Shiloh Christian (AR) 5 28:13.3 62
97 Ashlyn Berry 2013 Har-Ber (AR) 12 28:14.6 PR
98 Laura Staudt 2012 Haas Hall (AR) 2 28:17 SR
99 Brigitt Ortiz 2013 Greenwood (KY) 6 28:17.4 PR 63
100 Holly Jones 2013 Union Christian (AR) 2 28:28.5
101 Hannah Pearson 2011 FS Southside (AR) 5 28:29 SR 64
102 Hannah Martin 2013 Elkins (WV) 5 28:30.4 65
103 Whitney Cluck 2012 Alma (MI) 2 28:32 PR 66
104 Melanie Ward 2012 Tahlequah (OK) 10 28:36.9
105 Hailey Smith 2011 Elkins (WV) 6 28:37.6 67
106 Alexia Dimas 2011 Springdale (AR) 5 28:46.6 SR 68
107 Julie Compateso 2013 Elkins (WV) 7 28:49.5 69
108 Monika Montoya 2012 Alma (MI) 3 29:11 70
109 Deserae Weller 2013 Alma (MI) 4 29:13.3 PR 71
110 Lauren Abbey Northside High School (VA) 4 29:16.7
111 Danielle Klausmeier 2011 Alma (MI) 5 29:20.4 PR 72
112 Cati Killman 2011 Pea Ridge (AR) 3 29:27.5
113 Holly Coombes 2013 Alma (MI) 6 29:35.6 PR 73
114 Madison Boland 2011 Fayetteville (AR) 7 29:41 74
115 Eustacia Templeton 2012 Huntsville (AL) 3 29:52 PR
116 Holly Hammons 2013 Elkins (WV) 8 30:01.1
117 Tiffany Cochran 2013 Tahlequah (OK) 11 30:02.7
118 Anastasia Hendren 2012 Tahlequah (OK) 12 30:30.3 PR
119 Kristen Beavers 2012 Tahlequah (OK) 13 30:34.6
120 Katelyn Boyd 2014 Heritage (CO) 3 30:35.7
121 Jessica Patrick 2013 Elkins (WV) 9 30:38.1
122 Katisha Torix 2011 Huntsville (AL) 4 31:08.9 PR
123 Jessica Springer 2012 Siloam Springs (AR) 4 31:30.2
124 Hannah Sagely 2012 Union Christian (AR) 3 31:52.9 SR
125 Heather Houy 2012 Pea Ridge (AR) 4 32:07.1 PR
126 Melanie Wyatt 2012 Fayetteville (AR) 8 34:00.5
127 Kaitlyn Rupp 2013 Harrison (GA) 3 35:47 PR
128 Paula Tellez 2012 Alma (MI) 7 38:27.7 PR 75
Something wrong on this page? Report it →